sensor_id;sensor_type;location;lat;lon;timestamp;P1;durP1;ratioP1;P2;durP2;ratioP2
20523;SDS011;10420;48.542;12.270;2023-05-07T00:00:50;3.80;;;3.00;;
20523;SDS011;10420;48.542;12.270;2023-05-07T00:05:51;6.37;;;3.30;;
20523;SDS011;10420;48.542;12.270;2023-05-07T00:10:52;4.23;;;3.17;;
20523;SDS011;10420;48.542;12.270;2023-05-07T00:15:53;3.13;;;2.80;;
20523;SDS011;10420;48.542;12.270;2023-05-07T00:20:54;6.03;;;3.17;;
20523;SDS011;10420;48.542;12.270;2023-05-07T00:25:55;12.40;;;3.47;;
20523;SDS011;10420;48.542;12.270;2023-05-07T00:30:56;6.17;;;3.50;;
20523;SDS011;10420;48.542;12.270;2023-05-07T00:35:57;4.53;;;3.70;;
20523;SDS011;10420;48.542;12.270;2023-05-07T00:40:57;7.63;;;3.60;;
20523;SDS011;10420;48.542;12.270;2023-05-07T00:45:58;6.60;;;3.20;;
20523;SDS011;10420;48.542;12.270;2023-05-07T00:50:58;6.47;;;3.63;;
20523;SDS011;10420;48.542;12.270;2023-05-07T00:55:59;7.07;;;3.30;;
20523;SDS011;10420;48.542;12.270;2023-05-07T01:01:01;4.20;;;3.57;;
20523;SDS011;10420;48.542;12.270;2023-05-07T01:06:02;6.67;;;3.63;;
20523;SDS011;10420;48.542;12.270;2023-05-07T01:11:05;10.70;;;3.57;;
20523;SDS011;10420;48.542;12.270;2023-05-07T01:16:08;4.30;;;3.40;;
20523;SDS011;10420;48.542;12.270;2023-05-07T01:21:10;4.37;;;3.97;;
20523;SDS011;10420;48.542;12.270;2023-05-07T01:26:11;6.37;;;3.83;;
20523;SDS011;10420;48.542;12.270;2023-05-07T01:31:12;7.67;;;4.50;;
20523;SDS011;10420;48.542;12.270;2023-05-07T01:36:13;4.53;;;3.70;;
20523;SDS011;10420;48.542;12.270;2023-05-07T01:41:15;7.97;;;4.33;;
20523;SDS011;10420;48.542;12.270;2023-05-07T01:46:16;7.20;;;4.40;;
20523;SDS011;10420;48.542;12.270;2023-05-07T01:51:18;6.00;;;4.40;;
20523;SDS011;10420;48.542;12.270;2023-05-07T01:56:20;5.73;;;4.33;;
20523;SDS011;10420;48.542;12.270;2023-05-07T02:01:21;7.73;;;4.73;;
20523;SDS011;10420;48.542;12.270;2023-05-07T02:06:21;4.90;;;4.10;;
20523;SDS011;10420;48.542;12.270;2023-05-07T02:11:22;5.07;;;4.10;;
20523;SDS011;10420;48.542;12.270;2023-05-07T02:16:22;6.73;;;4.23;;
20523;SDS011;10420;48.542;12.270;2023-05-07T02:21:24;8.83;;;4.30;;
20523;SDS011;10420;48.542;12.270;2023-05-07T02:26:25;6.03;;;4.20;;
20523;SDS011;10420;48.542;12.270;2023-05-07T02:31:25;6.20;;;4.40;;
20523;SDS011;10420;48.542;12.270;2023-05-07T02:36:26;7.13;;;4.17;;
20523;SDS011;10420;48.542;12.270;2023-05-07T02:41:27;5.77;;;4.37;;
20523;SDS011;10420;48.542;12.270;2023-05-07T02:46:28;7.73;;;3.90;;
20523;SDS011;10420;48.542;12.270;2023-05-07T02:51:29;7.93;;;3.83;;
20523;SDS011;10420;48.542;12.270;2023-05-07T02:56:30;7.13;;;4.00;;
20523;SDS011;10420;48.542;12.270;2023-05-07T03:01:31;8.83;;;3.80;;
20523;SDS011;10420;48.542;12.270;2023-05-07T03:06:31;4.77;;;3.63;;
20523;SDS011;10420;48.542;12.270;2023-05-07T03:11:32;7.93;;;3.60;;
20523;SDS011;10420;48.542;12.270;2023-05-07T03:16:33;5.30;;;4.03;;
20523;SDS011;10420;48.542;12.270;2023-05-07T03:21:33;6.63;;;4.50;;
20523;SDS011;10420;48.542;12.270;2023-05-07T03:26:34;5.17;;;4.10;;
20523;SDS011;10420;48.542;12.270;2023-05-07T03:31:35;5.87;;;4.27;;
20523;SDS011;10420;48.542;12.270;2023-05-07T03:36:35;7.60;;;4.70;;
20523;SDS011;10420;48.542;12.270;2023-05-07T03:41:36;13.67;;;5.30;;
20523;SDS011;10420;48.542;12.270;2023-05-07T03:46:37;5.20;;;4.17;;
20523;SDS011;10420;48.542;12.270;2023-05-07T03:51:38;5.83;;;4.63;;
20523;SDS011;10420;48.542;12.270;2023-05-07T03:56:38;6.10;;;4.33;;
20523;SDS011;10420;48.542;12.270;2023-05-07T04:01:39;7.50;;;4.30;;
20523;SDS011;10420;48.542;12.270;2023-05-07T04:06:40;4.50;;;3.83;;
20523;SDS011;10420;48.542;12.270;2023-05-07T04:11:41;7.10;;;4.73;;
20523;SDS011;10420;48.542;12.270;2023-05-07T04:16:41;8.10;;;4.70;;
20523;SDS011;10420;48.542;12.270;2023-05-07T04:21:42;4.53;;;4.00;;
20523;SDS011;10420;48.542;12.270;2023-05-07T04:26:43;5.63;;;4.13;;
20523;SDS011;10420;48.542;12.270;2023-05-07T04:31:44;7.90;;;4.50;;
20523;SDS011;10420;48.542;12.270;2023-05-07T04:36:44;5.57;;;4.00;;
20523;SDS011;10420;48.542;12.270;2023-05-07T04:41:46;5.10;;;3.70;;
20523;SDS011;10420;48.542;12.270;2023-05-07T04:46:46;5.87;;;4.30;;
20523;SDS011;10420;48.542;12.270;2023-05-07T04:51:47;5.88;;;3.53;;
20523;SDS011;10420;48.542;12.270;2023-05-07T04:56:48;3.80;;;3.15;;
20523;SDS011;10420;48.542;12.270;2023-05-07T05:01:48;3.80;;;3.15;;
20523;SDS011;10420;48.542;12.270;2023-05-07T05:06:49;5.25;;;3.00;;
20523;SDS011;10420;48.542;12.270;2023-05-07T05:11:49;3.72;;;3.17;;
20523;SDS011;10420;48.542;12.270;2023-05-07T05:16:50;3.63;;;3.10;;
20523;SDS011;10420;48.542;12.270;2023-05-07T05:21:51;6.28;;;3.00;;
20523;SDS011;10420;48.542;12.270;2023-05-07T05:26:53;3.97;;;2.80;;
20523;SDS011;10420;48.542;12.270;2023-05-07T05:31:53;5.45;;;2.95;;
20523;SDS011;10420;48.542;12.270;2023-05-07T05:36:54;3.58;;;2.90;;
20523;SDS011;10420;48.542;12.270;2023-05-07T05:41:55;3.63;;;2.90;;
20523;SDS011;10420;48.542;12.270;2023-05-07T05:46:56;3.50;;;3.10;;
20523;SDS011;10420;48.542;12.270;2023-05-07T05:51:59;4.63;;;3.10;;
20523;SDS011;10420;48.542;12.270;2023-05-07T05:56:59;4.88;;;2.97;;
20523;SDS011;10420;48.542;12.270;2023-05-07T06:02:00;4.03;;;3.63;;
20523;SDS011;10420;48.542;12.270;2023-05-07T06:07:01;6.97;;;4.00;;
20523;SDS011;10420;48.542;12.270;2023-05-07T06:12:01;7.15;;;3.10;;
20523;SDS011;10420;48.542;12.270;2023-05-07T06:17:02;4.05;;;3.65;;
20523;SDS011;10420;48.542;12.270;2023-05-07T06:22:03;3.42;;;3.05;;
20523;SDS011;10420;48.542;12.270;2023-05-07T06:27:03;5.22;;;4.43;;
20523;SDS011;10420;48.542;12.270;2023-05-07T06:32:08;6.05;;;4.30;;
20523;SDS011;10420;48.542;12.270;2023-05-07T06:37:09;6.88;;;5.15;;
20523;SDS011;10420;48.542;12.270;2023-05-07T06:42:10;5.90;;;5.32;;
20523;SDS011;10420;48.542;12.270;2023-05-07T06:47:10;6.30;;;4.85;;
20523;SDS011;10420;48.542;12.270;2023-05-07T06:52:11;6.10;;;5.07;;
20523;SDS011;10420;48.542;12.270;2023-05-07T06:57:12;5.47;;;4.50;;
20523;SDS011;10420;48.542;12.270;2023-05-07T07:02:12;8.77;;;4.35;;
20523;SDS011;10420;48.542;12.270;2023-05-07T07:07:13;8.57;;;4.65;;
20523;SDS011;10420;48.542;12.270;2023-05-07T07:12:13;6.53;;;5.78;;
20523;SDS011;10420;48.542;12.270;2023-05-07T07:17:14;16.23;;;14.23;;
20523;SDS011;10420;48.542;12.270;2023-05-07T07:22:15;8.02;;;6.78;;
20523;SDS011;10420;48.542;12.270;2023-05-07T07:27:15;6.97;;;6.28;;
20523;SDS011;10420;48.542;12.270;2023-05-07T07:32:16;6.88;;;6.18;;
20523;SDS011;10420;48.542;12.270;2023-05-07T07:37:17;8.68;;;5.75;;
20523;SDS011;10420;48.542;12.270;2023-05-07T07:42:17;8.23;;;6.00;;
20523;SDS011;10420;48.542;12.270;2023-05-07T07:47:18;8.05;;;5.35;;
20523;SDS011;10420;48.542;12.270;2023-05-07T07:52:19;6.57;;;5.65;;
20523;SDS011;10420;48.542;12.270;2023-05-07T07:57:20;7.97;;;5.93;;
20523;SDS011;10420;48.542;12.270;2023-05-07T08:02:20;9.60;;;5.63;;
20523;SDS011;10420;48.542;12.270;2023-05-07T08:07:22;7.18;;;5.55;;
20523;SDS011;10420;48.542;12.270;2023-05-07T08:12:22;10.13;;;6.50;;
20523;SDS011;10420;48.542;12.270;2023-05-07T08:17:24;6.75;;;6.00;;
20523;SDS011;10420;48.542;12.270;2023-05-07T08:22:24;10.90;;;6.18;;
20523;SDS011;10420;48.542;12.270;2023-05-07T08:27:25;7.38;;;5.82;;
20523;SDS011;10420;48.542;12.270;2023-05-07T08:32:26;8.02;;;5.90;;
20523;SDS011;10420;48.542;12.270;2023-05-07T08:37:27;7.85;;;5.55;;
20523;SDS011;10420;48.542;12.270;2023-05-07T08:42:28;5.95;;;5.40;;
20523;SDS011;10420;48.542;12.270;2023-05-07T08:47:32;5.68;;;5.18;;
20523;SDS011;10420;48.542;12.270;2023-05-07T08:52:39;7.60;;;6.15;;
20523;SDS011;10420;48.542;12.270;2023-05-07T08:57:40;9.00;;;6.43;;
20523;SDS011;10420;48.542;12.270;2023-05-07T09:02:41;8.73;;;6.20;;
20523;SDS011;10420;48.542;12.270;2023-05-07T09:07:42;8.07;;;6.10;;
20523;SDS011;10420;48.542;12.270;2023-05-07T09:12:42;11.50;;;6.53;;
20523;SDS011;10420;48.542;12.270;2023-05-07T09:17:43;8.13;;;6.60;;
20523;SDS011;10420;48.542;12.270;2023-05-07T09:22:44;7.68;;;5.97;;
20523;SDS011;10420;48.542;12.270;2023-05-07T09:27:45;9.30;;;6.28;;
20523;SDS011;10420;48.542;12.270;2023-05-07T09:32:46;7.45;;;5.50;;
20523;SDS011;10420;48.542;12.270;2023-05-07T09:37:46;6.40;;;5.07;;
20523;SDS011;10420;48.542;12.270;2023-05-07T09:42:47;9.40;;;5.95;;
20523;SDS011;10420;48.542;12.270;2023-05-07T09:47:49;6.45;;;5.53;;
20523;SDS011;10420;48.542;12.270;2023-05-07T09:52:56;5.57;;;4.93;;
20523;SDS011;10420;48.542;12.270;2023-05-07T09:57:57;6.00;;;5.03;;
20523;SDS011;10420;48.542;12.270;2023-05-07T10:02:59;11.07;;;4.78;;
20523;SDS011;10420;48.542;12.270;2023-05-07T10:08:01;6.05;;;3.80;;
20523;SDS011;10420;48.542;12.270;2023-05-07T10:13:02;4.95;;;3.72;;
20523;SDS011;10420;48.542;12.270;2023-05-07T10:18:05;4.53;;;3.22;;
20523;SDS011;10420;48.542;12.270;2023-05-07T10:23:07;3.47;;;2.88;;
20523;SDS011;10420;48.542;12.270;2023-05-07T10:28:12;4.95;;;3.45;;
20523;SDS011;10420;48.542;12.270;2023-05-07T10:33:15;8.45;;;3.55;;
20523;SDS011;10420;48.542;12.270;2023-05-07T10:38:20;21.83;;;13.85;;
20523;SDS011;10420;48.542;12.270;2023-05-07T10:43:20;5.63;;;3.40;;
20523;SDS011;10420;48.542;12.270;2023-05-07T10:48:21;3.83;;;3.22;;
20523;SDS011;10420;48.542;12.270;2023-05-07T10:53:22;4.97;;;3.40;;
20523;SDS011;10420;48.542;12.270;2023-05-07T10:58:26;5.20;;;3.67;;
20523;SDS011;10420;48.542;12.270;2023-05-07T11:03:28;3.70;;;2.35;;
20523;SDS011;10420;48.542;12.270;2023-05-07T11:13:51;2.58;;;2.33;;
20523;SDS011;10420;48.542;12.270;2023-05-07T11:18:53;3.67;;;2.10;;
20523;SDS011;10420;48.542;12.270;2023-05-07T11:23:54;2.85;;;2.42;;
20523;SDS011;10420;48.542;12.270;2023-05-07T11:28:56;3.45;;;2.00;;
20523;SDS011;10420;48.542;12.270;2023-05-07T11:33:58;2.38;;;2.13;;
20523;SDS011;10420;48.542;12.270;2023-05-07T11:39:00;4.00;;;2.70;;
20523;SDS011;10420;48.542;12.270;2023-05-07T11:44:00;3.95;;;2.53;;
20523;SDS011;10420;48.542;12.270;2023-05-07T11:49:01;4.20;;;2.60;;
20523;SDS011;10420;48.542;12.270;2023-05-07T11:54:03;3.40;;;2.22;;
20523;SDS011;10420;48.542;12.270;2023-05-07T11:59:08;5.40;;;2.53;;
20523;SDS011;10420;48.542;12.270;2023-05-07T12:04:09;6.80;;;2.40;;
20523;SDS011;10420;48.542;12.270;2023-05-07T12:09:09;4.43;;;2.70;;
20523;SDS011;10420;48.542;12.270;2023-05-07T12:14:11;5.25;;;2.50;;
20523;SDS011;10420;48.542;12.270;2023-05-07T12:19:12;3.30;;;2.55;;
20523;SDS011;10420;48.542;12.270;2023-05-07T12:24:14;2.90;;;2.33;;
20523;SDS011;10420;48.542;12.270;2023-05-07T12:29:15;3.40;;;2.65;;
20523;SDS011;10420;48.542;12.270;2023-05-07T12:34:16;5.38;;;2.40;;
20523;SDS011;10420;48.542;12.270;2023-05-07T12:39:16;3.25;;;2.70;;
20523;SDS011;10420;48.542;12.270;2023-05-07T12:44:17;5.00;;;2.80;;
20523;SDS011;10420;48.542;12.270;2023-05-07T12:49:17;7.55;;;2.53;;
20523;SDS011;10420;48.542;12.270;2023-05-07T12:54:31;2.50;;;2.17;;
20523;SDS011;10420;48.542;12.270;2023-05-07T12:59:39;5.80;;;2.65;;
20523;SDS011;10420;48.542;12.270;2023-05-07T13:04:40;3.97;;;2.50;;
20523;SDS011;10420;48.542;12.270;2023-05-07T13:09:41;4.32;;;2.88;;
20523;SDS011;10420;48.542;12.270;2023-05-07T13:14:42;3.72;;;2.70;;
20523;SDS011;10420;48.542;12.270;2023-05-07T13:19:42;3.10;;;2.42;;
20523;SDS011;10420;48.542;12.270;2023-05-07T13:24:43;4.70;;;2.60;;
20523;SDS011;10420;48.542;12.270;2023-05-07T13:29:44;3.17;;;2.50;;
20523;SDS011;10420;48.542;12.270;2023-05-07T13:34:44;4.30;;;2.70;;
20523;SDS011;10420;48.542;12.270;2023-05-07T13:39:45;3.78;;;2.25;;
20523;SDS011;10420;48.542;12.270;2023-05-07T13:44:46;2.83;;;2.13;;
20523;SDS011;10420;48.542;12.270;2023-05-07T13:49:46;4.70;;;2.08;;
20523;SDS011;10420;48.542;12.270;2023-05-07T13:54:49;2.20;;;2.00;;
20523;SDS011;10420;48.542;12.270;2023-05-07T13:59:52;1.88;;;1.77;;
20523;SDS011;10420;48.542;12.270;2023-05-07T14:04:52;4.22;;;2.50;;
20523;SDS011;10420;48.542;12.270;2023-05-07T14:09:53;4.88;;;2.13;;
20523;SDS011;10420;48.542;12.270;2023-05-07T14:14:55;2.53;;;2.20;;
20523;SDS011;10420;48.542;12.270;2023-05-07T14:19:59;3.05;;;2.25;;
20523;SDS011;10420;48.542;12.270;2023-05-07T14:24:59;4.80;;;2.20;;
20523;SDS011;10420;48.542;12.270;2023-05-07T14:30:00;4.45;;;2.17;;
20523;SDS011;10420;48.542;12.270;2023-05-07T14:35:01;3.63;;;2.00;;
20523;SDS011;10420;48.542;12.270;2023-05-07T14:40:01;1.80;;;1.70;;
20523;SDS011;10420;48.542;12.270;2023-05-07T14:45:02;2.85;;;1.80;;
20523;SDS011;10420;48.542;12.270;2023-05-07T14:50:03;3.00;;;2.03;;
20523;SDS011;10420;48.542;12.270;2023-05-07T14:55:04;3.03;;;2.20;;
20523;SDS011;10420;48.542;12.270;2023-05-07T15:00:06;2.00;;;1.80;;
20523;SDS011;10420;48.542;12.270;2023-05-07T15:05:07;3.33;;;2.63;;
20523;SDS011;10420;48.542;12.270;2023-05-07T15:10:07;2.33;;;2.13;;
20523;SDS011;10420;48.542;12.270;2023-05-07T15:15:08;5.07;;;2.05;;
20523;SDS011;10420;48.542;12.270;2023-05-07T15:20:09;5.40;;;2.20;;
20523;SDS011;10420;48.542;12.270;2023-05-07T15:25:10;3.60;;;2.70;;
20523;SDS011;10420;48.542;12.270;2023-05-07T15:30:11;3.92;;;2.50;;
20523;SDS011;10420;48.542;12.270;2023-05-07T15:35:14;3.55;;;2.50;;
20523;SDS011;10420;48.542;12.270;2023-05-07T15:40:15;5.32;;;3.53;;
20523;SDS011;10420;48.542;12.270;2023-05-07T15:45:16;6.90;;;4.00;;
20523;SDS011;10420;48.542;12.270;2023-05-07T15:50:16;8.55;;;4.20;;
20523;SDS011;10420;48.542;12.270;2023-05-07T15:55:17;4.90;;;4.22;;
20523;SDS011;10420;48.542;12.270;2023-05-07T16:00:18;4.97;;;4.15;;
20523;SDS011;10420;48.542;12.270;2023-05-07T16:05:18;4.20;;;3.80;;
20523;SDS011;10420;48.542;12.270;2023-05-07T16:10:19;5.50;;;3.85;;
20523;SDS011;10420;48.542;12.270;2023-05-07T16:15:20;5.65;;;4.07;;
20523;SDS011;10420;48.542;12.270;2023-05-07T16:20:20;9.07;;;4.05;;
20523;SDS011;10420;48.542;12.270;2023-05-07T16:25:22;5.45;;;4.13;;
20523;SDS011;10420;48.542;12.270;2023-05-07T16:30:23;7.70;;;4.00;;
20523;SDS011;10420;48.542;12.270;2023-05-07T16:35:23;6.88;;;4.03;;
20523;SDS011;10420;48.542;12.270;2023-05-07T16:40:24;6.18;;;4.68;;
20523;SDS011;10420;48.542;12.270;2023-05-07T16:45:25;7.57;;;4.18;;
20523;SDS011;10420;48.542;12.270;2023-05-07T16:50:26;6.65;;;4.47;;
20523;SDS011;10420;48.542;12.270;2023-05-07T16:55:26;6.15;;;4.20;;
20523;SDS011;10420;48.542;12.270;2023-05-07T17:00:29;5.47;;;4.20;;
20523;SDS011;10420;48.542;12.270;2023-05-07T17:05:30;8.02;;;4.55;;
20523;SDS011;10420;48.542;12.270;2023-05-07T17:10:31;4.65;;;4.15;;
20523;SDS011;10420;48.542;12.270;2023-05-07T17:15:32;6.30;;;4.30;;
20523;SDS011;10420;48.542;12.270;2023-05-07T17:20:33;5.88;;;4.35;;
20523;SDS011;10420;48.542;12.270;2023-05-07T17:25:34;5.22;;;3.65;;
20523;SDS011;10420;48.542;12.270;2023-05-07T17:30:36;8.77;;;4.28;;
20523;SDS011;10420;48.542;12.270;2023-05-07T17:35:36;5.90;;;4.07;;
20523;SDS011;10420;48.542;12.270;2023-05-07T17:40:37;5.72;;;4.30;;
20523;SDS011;10420;48.542;12.270;2023-05-07T17:45:38;5.72;;;4.15;;
20523;SDS011;10420;48.542;12.270;2023-05-07T17:50:38;7.28;;;4.72;;
20523;SDS011;10420;48.542;12.270;2023-05-07T17:55:42;6.03;;;4.32;;
20523;SDS011;10420;48.542;12.270;2023-05-07T18:00:43;7.75;;;5.15;;
20523;SDS011;10420;48.542;12.270;2023-05-07T18:05:44;5.60;;;4.35;;
20523;SDS011;10420;48.542;12.270;2023-05-07T18:10:46;9.10;;;4.40;;
20523;SDS011;10420;48.542;12.270;2023-05-07T18:15:47;7.55;;;4.40;;
20523;SDS011;10420;48.542;12.270;2023-05-07T18:20:48;6.38;;;4.30;;
20523;SDS011;10420;48.542;12.270;2023-05-07T18:25:49;8.43;;;4.50;;
20523;SDS011;10420;48.542;12.270;2023-05-07T18:30:50;7.15;;;4.35;;
20523;SDS011;10420;48.542;12.270;2023-05-07T18:35:51;4.90;;;4.15;;
20523;SDS011;10420;48.542;12.270;2023-05-07T18:40:51;6.28;;;4.63;;
20523;SDS011;10420;48.542;12.270;2023-05-07T18:45:52;5.97;;;4.80;;
20523;SDS011;10420;48.542;12.270;2023-05-07T18:50:53;8.32;;;5.45;;
20523;SDS011;10420;48.542;12.270;2023-05-07T18:55:53;8.13;;;5.38;;
20523;SDS011;10420;48.542;12.270;2023-05-07T19:00:54;8.23;;;5.15;;
20523;SDS011;10420;48.542;12.270;2023-05-07T19:05:55;7.35;;;5.60;;
20523;SDS011;10420;48.542;12.270;2023-05-07T19:10:56;10.30;;;7.68;;
20523;SDS011;10420;48.542;12.270;2023-05-07T19:15:57;14.30;;;6.05;;
20523;SDS011;10420;48.542;12.270;2023-05-07T19:20:57;9.60;;;6.13;;
20523;SDS011;10420;48.542;12.270;2023-05-07T19:25:58;11.80;;;6.00;;
20523;SDS011;10420;48.542;12.270;2023-05-07T19:30:59;9.07;;;5.82;;
20523;SDS011;10420;48.542;12.270;2023-05-07T19:36:00;9.43;;;6.03;;
20523;SDS011;10420;48.542;12.270;2023-05-07T19:41:00;13.38;;;5.88;;
20523;SDS011;10420;48.542;12.270;2023-05-07T19:46:02;9.85;;;6.47;;
20523;SDS011;10420;48.542;12.270;2023-05-07T19:51:03;9.35;;;5.70;;
20523;SDS011;10420;48.542;12.270;2023-05-07T19:56:05;9.48;;;6.47;;
20523;SDS011;10420;48.542;12.270;2023-05-07T20:01:07;8.45;;;5.40;;
20523;SDS011;10420;48.542;12.270;2023-05-07T20:06:07;9.23;;;6.30;;
20523;SDS011;10420;48.542;12.270;2023-05-07T20:11:08;8.98;;;6.28;;
20523;SDS011;10420;48.542;12.270;2023-05-07T20:16:10;11.48;;;6.78;;
20523;SDS011;10420;48.542;12.270;2023-05-07T20:21:11;9.77;;;6.40;;
20523;SDS011;10420;48.542;12.270;2023-05-07T20:26:32;10.38;;;6.90;;
20523;SDS011;10420;48.542;12.270;2023-05-07T20:31:33;12.70;;;6.53;;
20523;SDS011;10420;48.542;12.270;2023-05-07T20:36:34;11.82;;;6.90;;
20523;SDS011;10420;48.542;12.270;2023-05-07T20:41:34;11.30;;;6.82;;
20523;SDS011;10420;48.542;12.270;2023-05-07T20:46:35;9.38;;;6.60;;
20523;SDS011;10420;48.542;12.270;2023-05-07T20:51:37;9.70;;;6.53;;
20523;SDS011;10420;48.542;12.270;2023-05-07T20:56:38;13.70;;;7.30;;
20523;SDS011;10420;48.542;12.270;2023-05-07T21:01:38;13.65;;;7.47;;
20523;SDS011;10420;48.542;12.270;2023-05-07T21:06:41;10.98;;;7.05;;
20523;SDS011;10420;48.542;12.270;2023-05-07T21:11:42;8.88;;;6.40;;
20523;SDS011;10420;48.542;12.270;2023-05-07T21:16:43;9.98;;;6.97;;
20523;SDS011;10420;48.542;12.270;2023-05-07T21:21:44;11.95;;;7.13;;
20523;SDS011;10420;48.542;12.270;2023-05-07T21:26:44;9.32;;;6.80;;
20523;SDS011;10420;48.542;12.270;2023-05-07T21:31:45;12.88;;;7.50;;
20523;SDS011;10420;48.542;12.270;2023-05-07T21:36:46;12.48;;;7.60;;
20523;SDS011;10420;48.542;12.270;2023-05-07T21:41:46;11.88;;;7.85;;
20523;SDS011;10420;48.542;12.270;2023-05-07T21:46:47;10.45;;;7.57;;
20523;SDS011;10420;48.542;12.270;2023-05-07T21:51:48;16.58;;;9.77;;
20523;SDS011;10420;48.542;12.270;2023-05-07T21:56:48;20.02;;;12.75;;
20523;SDS011;10420;48.542;12.270;2023-05-07T22:01:49;14.68;;;8.75;;
20523;SDS011;10420;48.542;12.270;2023-05-07T22:06:49;12.60;;;7.72;;
20523;SDS011;10420;48.542;12.270;2023-05-07T22:11:50;12.50;;;7.50;;
20523;SDS011;10420;48.542;12.270;2023-05-07T22:16:51;14.55;;;7.35;;
20523;SDS011;10420;48.542;12.270;2023-05-07T22:21:51;12.25;;;7.53;;
20523;SDS011;10420;48.542;12.270;2023-05-07T22:26:52;11.13;;;7.13;;
20523;SDS011;10420;48.542;12.270;2023-05-07T22:31:52;14.88;;;7.15;;
20523;SDS011;10420;48.542;12.270;2023-05-07T22:36:53;9.60;;;6.93;;
20523;SDS011;10420;48.542;12.270;2023-05-07T22:41:54;11.15;;;7.30;;
20523;SDS011;10420;48.542;12.270;2023-05-07T22:46:54;13.23;;;7.50;;
20523;SDS011;10420;48.542;12.270;2023-05-07T22:51:55;10.82;;;7.63;;
20523;SDS011;10420;48.542;12.270;2023-05-07T22:56:56;12.68;;;7.50;;
20523;SDS011;10420;48.542;12.270;2023-05-07T23:01:58;12.20;;;7.25;;
20523;SDS011;10420;48.542;12.270;2023-05-07T23:06:58;11.20;;;7.47;;
20523;SDS011;10420;48.542;12.270;2023-05-07T23:11:59;11.95;;;7.18;;
20523;SDS011;10420;48.542;12.270;2023-05-07T23:17:00;10.05;;;7.10;;
20523;SDS011;10420;48.542;12.270;2023-05-07T23:22:01;12.82;;;7.50;;
20523;SDS011;10420;48.542;12.270;2023-05-07T23:27:04;14.07;;;7.10;;
20523;SDS011;10420;48.542;12.270;2023-05-07T23:32:06;11.97;;;7.70;;
20523;SDS011;10420;48.542;12.270;2023-05-07T23:37:07;8.95;;;6.68;;
20523;SDS011;10420;48.542;12.270;2023-05-07T23:42:09;10.03;;;7.27;;
20523;SDS011;10420;48.542;12.270;2023-05-07T23:47:10;12.43;;;7.13;;
20523;SDS011;10420;48.542;12.270;2023-05-07T23:52:10;13.20;;;7.33;;
20523;SDS011;10420;48.542;12.270;2023-05-07T23:57:11;8.98;;;6.68;;
